sensor_id;sensor_type;location;lat;lon;timestamp;P1;durP1;ratioP1;P2;durP2;ratioP2
35364;SDS011;21464;48.112;11.530;2023-03-04T00:00:22;65.40;;;38.63;;
35364;SDS011;21464;48.112;11.530;2023-03-04T00:02:48;68.47;;;40.73;;
35364;SDS011;21464;48.112;11.530;2023-03-04T00:05:14;69.87;;;41.53;;
35364;SDS011;21464;48.112;11.530;2023-03-04T00:07:40;68.57;;;40.77;;
35364;SDS011;21464;48.112;11.530;2023-03-04T00:10:07;65.77;;;40.37;;
35364;SDS011;21464;48.112;11.530;2023-03-04T00:12:34;70.60;;;40.73;;
35364;SDS011;21464;48.112;11.530;2023-03-04T00:15:00;65.43;;;40.77;;
35364;SDS011;21464;48.112;11.530;2023-03-04T00:17:26;70.40;;;39.13;;
35364;SDS011;21464;48.112;11.530;2023-03-04T00:19:54;64.63;;;39.23;;
35364;SDS011;21464;48.112;11.530;2023-03-04T00:22:21;67.37;;;38.77;;
35364;SDS011;21464;48.112;11.530;2023-03-04T00:24:47;67.23;;;38.73;;
35364;SDS011;21464;48.112;11.530;2023-03-04T00:27:13;69.00;;;41.60;;
35364;SDS011;21464;48.112;11.530;2023-03-04T00:29:39;67.13;;;40.90;;
35364;SDS011;21464;48.112;11.530;2023-03-04T00:32:06;62.67;;;40.53;;
35364;SDS011;21464;48.112;11.530;2023-03-04T00:34:32;63.93;;;39.50;;
35364;SDS011;21464;48.112;11.530;2023-03-04T00:36:58;62.70;;;38.57;;
35364;SDS011;21464;48.112;11.530;2023-03-04T00:39:26;63.10;;;40.50;;
35364;SDS011;21464;48.112;11.530;2023-03-04T00:41:53;65.37;;;39.10;;
35364;SDS011;21464;48.112;11.530;2023-03-04T00:44:20;67.70;;;39.70;;
35364;SDS011;21464;48.112;11.530;2023-03-04T00:46:46;66.37;;;40.47;;
35364;SDS011;21464;48.112;11.530;2023-03-04T00:49:13;65.53;;;40.10;;
35364;SDS011;21464;48.112;11.530;2023-03-04T00:51:39;61.83;;;36.60;;
35364;SDS011;21464;48.112;11.530;2023-03-04T00:54:05;62.53;;;38.90;;
35364;SDS011;21464;48.112;11.530;2023-03-04T00:56:31;67.00;;;40.80;;
35364;SDS011;21464;48.112;11.530;2023-03-04T00:58:58;59.83;;;38.37;;
35364;SDS011;21464;48.112;11.530;2023-03-04T01:01:24;61.50;;;37.40;;
35364;SDS011;21464;48.112;11.530;2023-03-04T01:03:50;64.77;;;39.03;;
35364;SDS011;21464;48.112;11.530;2023-03-04T01:06:17;62.17;;;38.13;;
35364;SDS011;21464;48.112;11.530;2023-03-04T01:08:43;60.87;;;38.37;;
35364;SDS011;21464;48.112;11.530;2023-03-04T01:11:10;67.07;;;38.10;;
35364;SDS011;21464;48.112;11.530;2023-03-04T01:13:36;66.13;;;39.70;;
35364;SDS011;21464;48.112;11.530;2023-03-04T01:16:03;62.97;;;38.97;;
35364;SDS011;21464;48.112;11.530;2023-03-04T01:18:31;66.70;;;41.30;;
35364;SDS011;21464;48.112;11.530;2023-03-04T01:20:57;63.93;;;41.27;;
35364;SDS011;21464;48.112;11.530;2023-03-04T01:23:24;62.10;;;38.60;;
35364;SDS011;21464;48.112;11.530;2023-03-04T01:25:50;61.00;;;37.87;;
35364;SDS011;21464;48.112;11.530;2023-03-04T01:28:18;63.50;;;40.83;;
35364;SDS011;21464;48.112;11.530;2023-03-04T01:30:44;61.07;;;38.00;;
35364;SDS011;21464;48.112;11.530;2023-03-04T01:33:10;60.57;;;37.77;;
35364;SDS011;21464;48.112;11.530;2023-03-04T01:35:36;61.80;;;38.37;;
35364;SDS011;21464;48.112;11.530;2023-03-04T01:38:03;62.13;;;38.23;;
35364;SDS011;21464;48.112;11.530;2023-03-04T01:40:30;60.47;;;37.40;;
35364;SDS011;21464;48.112;11.530;2023-03-04T01:42:56;63.97;;;39.80;;
35364;SDS011;21464;48.112;11.530;2023-03-04T01:45:22;62.13;;;37.53;;
35364;SDS011;21464;48.112;11.530;2023-03-04T01:47:48;58.03;;;35.30;;
35364;SDS011;21464;48.112;11.530;2023-03-04T01:50:36;61.43;;;39.00;;
35364;SDS011;21464;48.112;11.530;2023-03-04T01:53:02;59.03;;;37.03;;
35364;SDS011;21464;48.112;11.530;2023-03-04T01:55:28;61.23;;;38.83;;
35364;SDS011;21464;48.112;11.530;2023-03-04T01:57:55;61.27;;;38.90;;
35364;SDS011;21464;48.112;11.530;2023-03-04T02:00:23;63.90;;;39.40;;
35364;SDS011;21464;48.112;11.530;2023-03-04T02:03:14;57.43;;;37.63;;
35364;SDS011;21464;48.112;11.530;2023-03-04T02:05:41;59.87;;;37.63;;
35364;SDS011;21464;48.112;11.530;2023-03-04T02:08:08;60.10;;;36.87;;
35364;SDS011;21464;48.112;11.530;2023-03-04T02:10:35;60.33;;;37.73;;
35364;SDS011;21464;48.112;11.530;2023-03-04T02:13:04;58.33;;;36.50;;
35364;SDS011;21464;48.112;11.530;2023-03-04T02:15:31;54.70;;;35.77;;
35364;SDS011;21464;48.112;11.530;2023-03-04T02:17:58;59.27;;;37.87;;
35364;SDS011;21464;48.112;11.530;2023-03-04T02:20:31;57.67;;;37.23;;
35364;SDS011;21464;48.112;11.530;2023-03-04T02:23:20;57.47;;;36.37;;
35364;SDS011;21464;48.112;11.530;2023-03-04T02:25:49;61.90;;;37.37;;
35364;SDS011;21464;48.112;11.530;2023-03-04T02:28:28;62.70;;;36.13;;
35364;SDS011;21464;48.112;11.530;2023-03-04T02:30:54;63.33;;;38.83;;
35364;SDS011;21464;48.112;11.530;2023-03-04T02:33:21;64.77;;;39.57;;
35364;SDS011;21464;48.112;11.530;2023-03-04T02:35:47;62.77;;;40.40;;
35364;SDS011;21464;48.112;11.530;2023-03-04T02:38:13;64.20;;;36.93;;
35364;SDS011;21464;48.112;11.530;2023-03-04T02:40:41;58.43;;;39.27;;
35364;SDS011;21464;48.112;11.530;2023-03-04T02:43:10;62.10;;;38.37;;
35364;SDS011;21464;48.112;11.530;2023-03-04T02:45:38;63.07;;;37.23;;
35364;SDS011;21464;48.112;11.530;2023-03-04T02:48:10;64.70;;;42.57;;
35364;SDS011;21464;48.112;11.530;2023-03-04T02:50:38;59.03;;;37.77;;
35364;SDS011;21464;48.112;11.530;2023-03-04T02:53:07;60.27;;;37.07;;
35364;SDS011;21464;48.112;11.530;2023-03-04T02:55:34;57.07;;;37.23;;
35364;SDS011;21464;48.112;11.530;2023-03-04T02:58:00;58.37;;;35.97;;
35364;SDS011;21464;48.112;11.530;2023-03-04T03:00:27;59.47;;;37.00;;
35364;SDS011;21464;48.112;11.530;2023-03-04T03:02:54;56.80;;;34.83;;
35364;SDS011;21464;48.112;11.530;2023-03-04T03:05:25;55.90;;;34.10;;
35364;SDS011;21464;48.112;11.530;2023-03-04T03:07:54;57.43;;;36.83;;
35364;SDS011;21464;48.112;11.530;2023-03-04T03:10:20;58.93;;;37.07;;
35364;SDS011;21464;48.112;11.530;2023-03-04T03:12:47;58.83;;;36.03;;
35364;SDS011;21464;48.112;11.530;2023-03-04T03:15:13;59.83;;;34.73;;
35364;SDS011;21464;48.112;11.530;2023-03-04T03:17:40;60.47;;;38.20;;
35364;SDS011;21464;48.112;11.530;2023-03-04T03:20:08;57.37;;;36.10;;
35364;SDS011;21464;48.112;11.530;2023-03-04T03:22:35;61.30;;;38.50;;
35364;SDS011;21464;48.112;11.530;2023-03-04T03:25:01;59.60;;;37.77;;
35364;SDS011;21464;48.112;11.530;2023-03-04T03:27:28;59.17;;;38.50;;
35364;SDS011;21464;48.112;11.530;2023-03-04T03:29:54;59.37;;;37.23;;
35364;SDS011;21464;48.112;11.530;2023-03-04T03:32:20;58.27;;;37.20;;
35364;SDS011;21464;48.112;11.530;2023-03-04T03:34:50;56.13;;;36.97;;
35364;SDS011;21464;48.112;11.530;2023-03-04T03:37:17;56.93;;;37.00;;
35364;SDS011;21464;48.112;11.530;2023-03-04T03:39:44;57.30;;;36.10;;
35364;SDS011;21464;48.112;11.530;2023-03-04T03:42:10;58.67;;;38.80;;
35364;SDS011;21464;48.112;11.530;2023-03-04T03:44:36;62.10;;;37.67;;
35364;SDS011;21464;48.112;11.530;2023-03-04T03:47:02;53.10;;;34.90;;
35364;SDS011;21464;48.112;11.530;2023-03-04T03:49:28;54.67;;;33.53;;
35364;SDS011;21464;48.112;11.530;2023-03-04T03:51:55;56.77;;;35.67;;
35364;SDS011;21464;48.112;11.530;2023-03-04T03:54:21;60.43;;;36.53;;
35364;SDS011;21464;48.112;11.530;2023-03-04T03:56:47;53.83;;;35.17;;
35364;SDS011;21464;48.112;11.530;2023-03-04T03:59:13;56.27;;;35.97;;
35364;SDS011;21464;48.112;11.530;2023-03-04T04:01:39;58.83;;;37.97;;
35364;SDS011;21464;48.112;11.530;2023-03-04T04:04:06;62.10;;;36.70;;
35364;SDS011;21464;48.112;11.530;2023-03-04T04:06:32;63.00;;;37.43;;
35364;SDS011;21464;48.112;11.530;2023-03-04T04:08:58;61.03;;;34.60;;
35364;SDS011;21464;48.112;11.530;2023-03-04T04:11:25;58.57;;;37.10;;
35364;SDS011;21464;48.112;11.530;2023-03-04T04:13:51;58.10;;;34.50;;
35364;SDS011;21464;48.112;11.530;2023-03-04T04:16:17;60.30;;;37.97;;
35364;SDS011;21464;48.112;11.530;2023-03-04T04:18:43;56.63;;;33.73;;
35364;SDS011;21464;48.112;11.530;2023-03-04T04:21:10;58.37;;;37.27;;
35364;SDS011;21464;48.112;11.530;2023-03-04T04:23:36;57.37;;;35.77;;
35364;SDS011;21464;48.112;11.530;2023-03-04T04:26:02;54.20;;;35.67;;
35364;SDS011;21464;48.112;11.530;2023-03-04T04:28:28;56.93;;;34.13;;
35364;SDS011;21464;48.112;11.530;2023-03-04T04:30:55;51.53;;;33.87;;
35364;SDS011;21464;48.112;11.530;2023-03-04T04:33:21;48.67;;;31.30;;
35364;SDS011;21464;48.112;11.530;2023-03-04T04:35:47;55.83;;;34.97;;
35364;SDS011;21464;48.112;11.530;2023-03-04T04:38:13;69.13;;;41.50;;
35364;SDS011;21464;48.112;11.530;2023-03-04T04:40:39;61.17;;;36.33;;
35364;SDS011;21464;48.112;11.530;2023-03-04T04:43:07;53.60;;;34.00;;
35364;SDS011;21464;48.112;11.530;2023-03-04T04:45:33;59.40;;;35.50;;
35364;SDS011;21464;48.112;11.530;2023-03-04T04:48:00;58.10;;;36.23;;
35364;SDS011;21464;48.112;11.530;2023-03-04T04:50:26;57.43;;;35.63;;
35364;SDS011;21464;48.112;11.530;2023-03-04T04:52:52;58.97;;;34.63;;
35364;SDS011;21464;48.112;11.530;2023-03-04T04:55:19;63.13;;;36.77;;
35364;SDS011;21464;48.112;11.530;2023-03-04T04:57:45;64.90;;;37.53;;
35364;SDS011;21464;48.112;11.530;2023-03-04T05:00:11;62.00;;;36.00;;
35364;SDS011;21464;48.112;11.530;2023-03-04T05:02:38;62.03;;;36.87;;
35364;SDS011;21464;48.112;11.530;2023-03-04T05:05:04;62.87;;;35.90;;
35364;SDS011;21464;48.112;11.530;2023-03-04T05:07:32;58.67;;;37.27;;
35364;SDS011;21464;48.112;11.530;2023-03-04T05:09:58;63.27;;;36.80;;
35364;SDS011;21464;48.112;11.530;2023-03-04T05:12:25;60.57;;;34.17;;
35364;SDS011;21464;48.112;11.530;2023-03-04T05:14:51;55.37;;;35.30;;
35364;SDS011;21464;48.112;11.530;2023-03-04T05:17:17;63.83;;;36.83;;
35364;SDS011;21464;48.112;11.530;2023-03-04T05:19:43;58.63;;;35.07;;
35364;SDS011;21464;48.112;11.530;2023-03-04T05:22:09;57.60;;;36.13;;
35364;SDS011;21464;48.112;11.530;2023-03-04T05:24:36;56.50;;;33.63;;
35364;SDS011;21464;48.112;11.530;2023-03-04T05:27:02;60.40;;;36.20;;
35364;SDS011;21464;48.112;11.530;2023-03-04T05:29:28;60.50;;;35.63;;
35364;SDS011;21464;48.112;11.530;2023-03-04T05:31:54;60.53;;;36.23;;
35364;SDS011;21464;48.112;11.530;2023-03-04T05:34:21;57.60;;;35.33;;
35364;SDS011;21464;48.112;11.530;2023-03-04T05:36:47;59.83;;;34.67;;
35364;SDS011;21464;48.112;11.530;2023-03-04T05:39:13;61.43;;;36.40;;
35364;SDS011;21464;48.112;11.530;2023-03-04T05:41:39;58.07;;;36.23;;
35364;SDS011;21464;48.112;11.530;2023-03-04T05:44:06;60.43;;;33.73;;
35364;SDS011;21464;48.112;11.530;2023-03-04T05:46:32;53.73;;;32.60;;
35364;SDS011;21464;48.112;11.530;2023-03-04T05:48:58;61.77;;;36.03;;
35364;SDS011;21464;48.112;11.530;2023-03-04T05:51:24;59.57;;;35.77;;
35364;SDS011;21464;48.112;11.530;2023-03-04T05:53:50;51.67;;;33.43;;
35364;SDS011;21464;48.112;11.530;2023-03-04T05:56:17;54.30;;;32.13;;
35364;SDS011;21464;48.112;11.530;2023-03-04T05:58:45;58.63;;;34.47;;
35364;SDS011;21464;48.112;11.530;2023-03-04T06:01:14;50.20;;;32.33;;
35364;SDS011;21464;48.112;11.530;2023-03-04T06:03:40;58.20;;;34.37;;
35364;SDS011;21464;48.112;11.530;2023-03-04T06:06:08;57.13;;;33.67;;
35364;SDS011;21464;48.112;11.530;2023-03-04T06:08:34;54.00;;;32.63;;
35364;SDS011;21464;48.112;11.530;2023-03-04T06:11:01;56.20;;;34.40;;
35364;SDS011;21464;48.112;11.530;2023-03-04T06:13:27;51.37;;;32.53;;
35364;SDS011;21464;48.112;11.530;2023-03-04T06:15:54;54.77;;;32.60;;
35364;SDS011;21464;48.112;11.530;2023-03-04T06:18:21;52.83;;;33.87;;
35364;SDS011;21464;48.112;11.530;2023-03-04T06:20:48;54.93;;;34.53;;
35364;SDS011;21464;48.112;11.530;2023-03-04T06:23:15;53.93;;;35.37;;
35364;SDS011;21464;48.112;11.530;2023-03-04T06:25:41;52.07;;;29.73;;
35364;SDS011;21464;48.112;11.530;2023-03-04T06:28:08;49.80;;;33.20;;
35364;SDS011;21464;48.112;11.530;2023-03-04T06:30:34;47.33;;;28.87;;
35364;SDS011;21464;48.112;11.530;2023-03-04T06:33:00;55.80;;;32.90;;
35364;SDS011;21464;48.112;11.530;2023-03-04T06:35:26;46.67;;;32.37;;
35364;SDS011;21464;48.112;11.530;2023-03-04T06:37:52;50.67;;;32.23;;
35364;SDS011;21464;48.112;11.530;2023-03-04T06:40:19;63.67;;;36.13;;
35364;SDS011;21464;48.112;11.530;2023-03-04T06:42:45;56.37;;;35.00;;
35364;SDS011;21464;48.112;11.530;2023-03-04T06:45:11;54.67;;;33.97;;
35364;SDS011;21464;48.112;11.530;2023-03-04T06:47:37;55.13;;;35.17;;
35364;SDS011;21464;48.112;11.530;2023-03-04T06:50:04;53.03;;;33.23;;
35364;SDS011;21464;48.112;11.530;2023-03-04T06:52:30;51.57;;;32.90;;
35364;SDS011;21464;48.112;11.530;2023-03-04T06:54:57;52.77;;;34.67;;
35364;SDS011;21464;48.112;11.530;2023-03-04T06:57:23;53.73;;;34.70;;
35364;SDS011;21464;48.112;11.530;2023-03-04T06:59:49;55.30;;;36.00;;
35364;SDS011;21464;48.112;11.530;2023-03-04T07:02:15;56.40;;;34.57;;
35364;SDS011;21464;48.112;11.530;2023-03-04T07:04:42;45.47;;;28.60;;
35364;SDS011;21464;48.112;11.530;2023-03-04T07:07:09;55.23;;;33.87;;
35364;SDS011;21464;48.112;11.530;2023-03-04T07:09:35;55.67;;;33.83;;
35364;SDS011;21464;48.112;11.530;2023-03-04T07:12:02;59.03;;;38.37;;
35364;SDS011;21464;48.112;11.530;2023-03-04T07:14:28;54.00;;;33.50;;
35364;SDS011;21464;48.112;11.530;2023-03-04T07:16:54;58.30;;;35.93;;
35364;SDS011;21464;48.112;11.530;2023-03-04T07:19:21;57.43;;;35.73;;
35364;SDS011;21464;48.112;11.530;2023-03-04T07:21:47;56.73;;;35.53;;
35364;SDS011;21464;48.112;11.530;2023-03-04T07:24:13;44.37;;;26.90;;
35364;SDS011;21464;48.112;11.530;2023-03-04T07:26:40;61.37;;;38.20;;
35364;SDS011;21464;48.112;11.530;2023-03-04T07:29:06;56.23;;;35.33;;
35364;SDS011;21464;48.112;11.530;2023-03-04T07:31:33;59.13;;;38.77;;
35364;SDS011;21464;48.112;11.530;2023-03-04T07:34:04;53.97;;;34.53;;
35364;SDS011;21464;48.112;11.530;2023-03-04T07:36:32;59.87;;;37.83;;
35364;SDS011;21464;48.112;11.530;2023-03-04T07:39:00;52.43;;;34.17;;
35364;SDS011;21464;48.112;11.530;2023-03-04T07:41:27;57.07;;;35.03;;
35364;SDS011;21464;48.112;11.530;2023-03-04T07:43:55;56.70;;;33.20;;
35364;SDS011;21464;48.112;11.530;2023-03-04T07:46:22;54.07;;;35.40;;
35364;SDS011;21464;48.112;11.530;2023-03-04T07:48:48;57.73;;;36.07;;
35364;SDS011;21464;48.112;11.530;2023-03-04T07:51:16;56.60;;;33.90;;
35364;SDS011;21464;48.112;11.530;2023-03-04T07:53:45;58.90;;;38.20;;
35364;SDS011;21464;48.112;11.530;2023-03-04T07:56:14;60.70;;;35.73;;
35364;SDS011;21464;48.112;11.530;2023-03-04T07:58:42;60.93;;;38.00;;
35364;SDS011;21464;48.112;11.530;2023-03-04T08:01:13;63.90;;;37.80;;
35364;SDS011;21464;48.112;11.530;2023-03-04T08:03:43;58.67;;;37.13;;
35364;SDS011;21464;48.112;11.530;2023-03-04T08:06:11;56.53;;;33.57;;
35364;SDS011;21464;48.112;11.530;2023-03-04T08:08:38;57.50;;;37.80;;
35364;SDS011;21464;48.112;11.530;2023-03-04T08:11:05;45.33;;;27.63;;
35364;SDS011;21464;48.112;11.530;2023-03-04T08:13:32;56.80;;;36.77;;
35364;SDS011;21464;48.112;11.530;2023-03-04T08:15:59;60.87;;;38.90;;
35364;SDS011;21464;48.112;11.530;2023-03-04T08:18:25;56.30;;;36.33;;
35364;SDS011;21464;48.112;11.530;2023-03-04T08:20:52;52.47;;;35.17;;
35364;SDS011;21464;48.112;11.530;2023-03-04T08:23:18;55.67;;;36.97;;
35364;SDS011;21464;48.112;11.530;2023-03-04T08:25:45;59.00;;;39.57;;
35364;SDS011;21464;48.112;11.530;2023-03-04T08:28:11;58.87;;;34.80;;
35364;SDS011;21464;48.112;11.530;2023-03-04T08:30:39;51.37;;;33.30;;
35364;SDS011;21464;48.112;11.530;2023-03-04T08:33:06;47.30;;;31.63;;
35364;SDS011;21464;48.112;11.530;2023-03-04T08:35:35;47.73;;;28.30;;
35364;SDS011;21464;48.112;11.530;2023-03-04T08:38:02;50.87;;;33.47;;
35364;SDS011;21464;48.112;11.530;2023-03-04T08:40:29;58.53;;;34.83;;
35364;SDS011;21464;48.112;11.530;2023-03-04T08:42:55;54.93;;;36.07;;
35364;SDS011;21464;48.112;11.530;2023-03-04T08:45:22;57.00;;;36.23;;
35364;SDS011;21464;48.112;11.530;2023-03-04T08:47:49;53.53;;;34.63;;
35364;SDS011;21464;48.112;11.530;2023-03-04T08:50:15;54.30;;;36.33;;
35364;SDS011;21464;48.112;11.530;2023-03-04T08:52:41;51.60;;;31.63;;
35364;SDS011;21464;48.112;11.530;2023-03-04T08:55:08;57.10;;;36.17;;
35364;SDS011;21464;48.112;11.530;2023-03-04T08:57:34;54.87;;;35.07;;
35364;SDS011;21464;48.112;11.530;2023-03-04T09:00:00;52.57;;;32.63;;
35364;SDS011;21464;48.112;11.530;2023-03-04T09:02:27;48.40;;;31.70;;
35364;SDS011;21464;48.112;11.530;2023-03-04T09:04:53;40.90;;;25.73;;
35364;SDS011;21464;48.112;11.530;2023-03-04T09:07:19;51.03;;;32.73;;
35364;SDS011;21464;48.112;11.530;2023-03-04T09:09:45;49.17;;;30.87;;
35364;SDS011;21464;48.112;11.530;2023-03-04T09:12:12;51.20;;;34.30;;
35364;SDS011;21464;48.112;11.530;2023-03-04T09:14:38;52.50;;;33.87;;
35364;SDS011;21464;48.112;11.530;2023-03-04T09:17:05;49.17;;;30.90;;
35364;SDS011;21464;48.112;11.530;2023-03-04T09:19:31;40.23;;;24.20;;
35364;SDS011;21464;48.112;11.530;2023-03-04T09:21:58;50.43;;;30.70;;
35364;SDS011;21464;48.112;11.530;2023-03-04T09:24:24;46.50;;;31.37;;
35364;SDS011;21464;48.112;11.530;2023-03-04T09:26:52;45.63;;;29.13;;
35364;SDS011;21464;48.112;11.530;2023-03-04T09:29:18;38.87;;;26.10;;
35364;SDS011;21464;48.112;11.530;2023-03-04T09:31:44;41.53;;;29.47;;
35364;SDS011;21464;48.112;11.530;2023-03-04T09:34:11;37.00;;;26.20;;
35364;SDS011;21464;48.112;11.530;2023-03-04T09:36:38;37.83;;;24.93;;
35364;SDS011;21464;48.112;11.530;2023-03-04T09:39:04;39.53;;;25.83;;
35364;SDS011;21464;48.112;11.530;2023-03-04T09:41:53;36.67;;;25.40;;
35364;SDS011;21464;48.112;11.530;2023-03-04T09:44:23;39.50;;;25.07;;
35364;SDS011;21464;48.112;11.530;2023-03-04T09:47:11;37.83;;;25.97;;
35364;SDS011;21464;48.112;11.530;2023-03-04T09:49:41;39.73;;;25.33;;
35364;SDS011;21464;48.112;11.530;2023-03-04T09:52:26;35.10;;;21.13;;
35364;SDS011;21464;48.112;11.530;2023-03-04T09:55:22;42.03;;;28.60;;
35364;SDS011;21464;48.112;11.530;2023-03-04T10:00:43;42.43;;;27.43;;
35364;SDS011;21464;48.112;11.530;2023-03-04T10:03:11;42.23;;;28.17;;
35364;SDS011;21464;48.112;11.530;2023-03-04T10:06:00;45.53;;;27.83;;
35364;SDS011;21464;48.112;11.530;2023-03-04T10:16:39;36.07;;;25.30;;
35364;SDS011;21464;48.112;11.530;2023-03-04T10:21:50;41.27;;;24.70;;
35364;SDS011;21464;48.112;11.530;2023-03-04T10:24:18;40.27;;;25.80;;
35364;SDS011;21464;48.112;11.530;2023-03-04T10:26:48;33.40;;;23.70;;
35364;SDS011;21464;48.112;11.530;2023-03-04T10:29:18;38.63;;;24.97;;
35364;SDS011;21464;48.112;11.530;2023-03-04T10:31:47;36.60;;;26.53;;
35364;SDS011;21464;48.112;11.530;2023-03-04T10:34:15;37.43;;;24.60;;
35364;SDS011;21464;48.112;11.530;2023-03-04T10:39:32;35.30;;;25.37;;
35364;SDS011;21464;48.112;11.530;2023-03-04T10:42:04;38.73;;;26.13;;
35364;SDS011;21464;48.112;11.530;2023-03-04T10:44:33;26.63;;;18.33;;
35364;SDS011;21464;48.112;11.530;2023-03-04T10:47:00;34.07;;;23.43;;
35364;SDS011;21464;48.112;11.530;2023-03-04T10:49:27;39.03;;;26.90;;
35364;SDS011;21464;48.112;11.530;2023-03-04T10:52:14;35.87;;;24.50;;
35364;SDS011;21464;48.112;11.530;2023-03-04T10:54:47;33.70;;;23.20;;
35364;SDS011;21464;48.112;11.530;2023-03-04T10:59:55;27.13;;;18.67;;
35364;SDS011;21464;48.112;11.530;2023-03-04T11:02:26;28.93;;;17.90;;
35364;SDS011;21464;48.112;11.530;2023-03-04T11:07:47;36.77;;;24.17;;
35364;SDS011;21464;48.112;11.530;2023-03-04T11:12:49;31.77;;;22.90;;
35364;SDS011;21464;48.112;11.530;2023-03-04T11:15:22;27.03;;;17.17;;
35364;SDS011;21464;48.112;11.530;2023-03-04T11:18:02;33.43;;;23.50;;
35364;SDS011;21464;48.112;11.530;2023-03-04T11:20:33;32.77;;;20.93;;
35364;SDS011;21464;48.112;11.530;2023-03-04T11:23:13;31.60;;;22.20;;
35364;SDS011;21464;48.112;11.530;2023-03-04T11:26:01;30.10;;;20.17;;
35364;SDS011;21464;48.112;11.530;2023-03-04T11:28:41;36.50;;;24.60;;
35364;SDS011;21464;48.112;11.530;2023-03-04T11:31:22;37.03;;;24.40;;
35364;SDS011;21464;48.112;11.530;2023-03-04T11:45:09;37.03;;;26.77;;
35364;SDS011;21464;48.112;11.530;2023-03-04T12:09:00;37.87;;;27.40;;
35364;SDS011;21464;48.112;11.530;2023-03-04T12:14:20;37.57;;;27.50;;
35364;SDS011;21464;48.112;11.530;2023-03-04T12:28:32;33.80;;;23.67;;
35364;SDS011;21464;48.112;11.530;2023-03-04T12:51:51;29.30;;;22.27;;
35364;SDS011;21464;48.112;11.530;2023-03-04T12:56:57;27.58;;;23.15;;
35364;SDS011;21464;48.112;11.530;2023-03-04T13:00:06;30.17;;;22.80;;
35364;SDS011;21464;48.112;11.530;2023-03-04T13:02:41;29.95;;;22.00;;
35364;SDS011;21464;48.112;11.530;2023-03-04T13:05:15;30.45;;;22.85;;
35364;SDS011;21464;48.112;11.530;2023-03-04T13:10:28;29.00;;;22.65;;
35364;SDS011;21464;48.112;11.530;2023-03-04T13:12:56;28.55;;;22.98;;
35364;SDS011;21464;48.112;11.530;2023-03-04T13:17:50;23.40;;;20.88;;
35364;SDS011;21464;48.112;11.530;2023-03-04T13:20:22;26.02;;;21.40;;
35364;SDS011;21464;48.112;11.530;2023-03-04T13:22:57;26.02;;;20.70;;
35364;SDS011;21464;48.112;11.530;2023-03-04T13:28:19;25.17;;;21.05;;
35364;SDS011;21464;48.112;11.530;2023-03-04T13:31:04;22.92;;;19.58;;
35364;SDS011;21464;48.112;11.530;2023-03-04T13:36:02;25.38;;;19.75;;
35364;SDS011;21464;48.112;11.530;2023-03-04T13:38:32;25.05;;;20.73;;
35364;SDS011;21464;48.112;11.530;2023-03-04T13:43:46;26.75;;;19.60;;
35364;SDS011;21464;48.112;11.530;2023-03-04T14:04:23;24.70;;;20.15;;
35364;SDS011;21464;48.112;11.530;2023-03-04T14:06:53;22.40;;;19.52;;
35364;SDS011;21464;48.112;11.530;2023-03-04T14:09:22;25.33;;;19.90;;
35364;SDS011;21464;48.112;11.530;2023-03-04T14:11:59;24.90;;;20.33;;
35364;SDS011;21464;48.112;11.530;2023-03-04T14:14:29;24.45;;;20.35;;
35364;SDS011;21464;48.112;11.530;2023-03-04T14:17:07;24.83;;;20.60;;
35364;SDS011;21464;48.112;11.530;2023-03-04T14:19:43;26.63;;;20.27;;
35364;SDS011;21464;48.112;11.530;2023-03-04T14:27:32;24.67;;;19.15;;
35364;SDS011;21464;48.112;11.530;2023-03-04T14:30:02;24.40;;;19.70;;
35364;SDS011;21464;48.112;11.530;2023-03-04T14:32:33;25.70;;;18.52;;
35364;SDS011;21464;48.112;11.530;2023-03-04T14:35:03;26.20;;;19.45;;
35364;SDS011;21464;48.112;11.530;2023-03-04T14:38:15;25.80;;;18.17;;
35364;SDS011;21464;48.112;11.530;2023-03-04T14:40:28;26.13;;;18.35;;
35364;SDS011;21464;48.112;11.530;2023-03-04T14:43:01;25.23;;;19.65;;
35364;SDS011;21464;48.112;11.530;2023-03-04T14:45:30;27.30;;;19.38;;
35364;SDS011;21464;48.112;11.530;2023-03-04T14:47:58;23.35;;;18.85;;
35364;SDS011;21464;48.112;11.530;2023-03-04T14:50:26;22.70;;;17.70;;
35364;SDS011;21464;48.112;11.530;2023-03-04T14:55:34;23.70;;;17.65;;
35364;SDS011;21464;48.112;11.530;2023-03-04T14:58:07;24.17;;;18.08;;
35364;SDS011;21464;48.112;11.530;2023-03-04T15:00:35;22.75;;;16.92;;
35364;SDS011;21464;48.112;11.530;2023-03-04T15:03:19;22.17;;;17.63;;
35364;SDS011;21464;48.112;11.530;2023-03-04T15:05:49;23.27;;;17.73;;
35364;SDS011;21464;48.112;11.530;2023-03-04T15:08:19;22.40;;;16.77;;
35364;SDS011;21464;48.112;11.530;2023-03-04T15:11:00;22.90;;;16.90;;
35364;SDS011;21464;48.112;11.530;2023-03-04T15:16:03;23.60;;;16.97;;
35364;SDS011;21464;48.112;11.530;2023-03-04T15:18:29;21.20;;;16.10;;
35364;SDS011;21464;48.112;11.530;2023-03-04T15:21:03;21.97;;;16.20;;
35364;SDS011;21464;48.112;11.530;2023-03-04T15:23:31;22.63;;;15.90;;
35364;SDS011;21464;48.112;11.530;2023-03-04T15:25:59;23.30;;;16.63;;
35364;SDS011;21464;48.112;11.530;2023-03-04T15:28:37;23.77;;;17.30;;
35364;SDS011;21464;48.112;11.530;2023-03-04T15:31:04;24.30;;;16.57;;
35364;SDS011;21464;48.112;11.530;2023-03-04T15:33:31;21.77;;;16.73;;
35364;SDS011;21464;48.112;11.530;2023-03-04T15:35:58;21.50;;;16.67;;
35364;SDS011;21464;48.112;11.530;2023-03-04T15:38:26;24.43;;;16.87;;
35364;SDS011;21464;48.112;11.530;2023-03-04T15:40:53;22.43;;;16.73;;
35364;SDS011;21464;48.112;11.530;2023-03-04T15:43:21;22.70;;;15.93;;
35364;SDS011;21464;48.112;11.530;2023-03-04T15:45:48;27.33;;;17.50;;
35364;SDS011;21464;48.112;11.530;2023-03-04T15:48:16;23.17;;;14.60;;
35364;SDS011;21464;48.112;11.530;2023-03-04T15:50:44;24.07;;;17.93;;
35364;SDS011;21464;48.112;11.530;2023-03-04T15:53:18;25.37;;;17.30;;
35364;SDS011;21464;48.112;11.530;2023-03-04T15:55:47;24.80;;;16.87;;
35364;SDS011;21464;48.112;11.530;2023-03-04T15:58:14;23.50;;;15.93;;
35364;SDS011;21464;48.112;11.530;2023-03-04T16:00:40;22.50;;;16.13;;
35364;SDS011;21464;48.112;11.530;2023-03-04T16:03:11;20.83;;;15.53;;
35364;SDS011;21464;48.112;11.530;2023-03-04T16:05:41;24.13;;;17.87;;
35364;SDS011;21464;48.112;11.530;2023-03-04T16:08:09;22.43;;;16.00;;
35364;SDS011;21464;48.112;11.530;2023-03-04T16:10:37;22.13;;;15.97;;
35364;SDS011;21464;48.112;11.530;2023-03-04T16:13:04;22.83;;;16.40;;
35364;SDS011;21464;48.112;11.530;2023-03-04T16:15:30;25.37;;;17.53;;
35364;SDS011;21464;48.112;11.530;2023-03-04T16:17:57;19.40;;;15.60;;
35364;SDS011;21464;48.112;11.530;2023-03-04T16:20:26;21.80;;;16.43;;
35364;SDS011;21464;48.112;11.530;2023-03-04T16:22:54;23.93;;;16.10;;
35364;SDS011;21464;48.112;11.530;2023-03-04T16:25:22;22.97;;;16.20;;
35364;SDS011;21464;48.112;11.530;2023-03-04T16:27:58;24.53;;;16.63;;
35364;SDS011;21464;48.112;11.530;2023-03-04T16:30:27;22.57;;;16.50;;
35364;SDS011;21464;48.112;11.530;2023-03-04T16:32:53;24.80;;;16.23;;